Flight Track Log - Related Links

Times and Time Zones

All times are in EST time to prevent confusion due to time zone crossing. See the N789EX flight status page for this flight to view local times or setup timezone preferences in your user account.

Time Position Orientation Groundspeed Altitude Reporting Facility
EST Latitude Longitude Course Direction KTS MPH feet Rate Location/Type
05:08PM 38.5977 -121.2188 356° North 267 307 9,200  Level FlightAware ADS-B (KLSV)
05:08PM 38.6418 -121.2245 354° North 279 321 11,300 2,325 Climbing FlightAware ADS-B (KLSV)
05:09PM 38.6895 -121.2311 354° North 335 386 12,300 2,250 Climbing FlightAware ADS-B (KLSV)
05:10PM 38.7697 -121.2422 354° North 348 400 14,300 2,775 Climbing FlightAware ADS-B (KLSV)
05:10PM 38.8378 -121.2516 354° North 365 420 16,000 2,550 Climbing FlightAware ADS-B (KLSV)
05:11PM 38.8963 -121.2597 354° North 379 436 17,700 2,475 Climbing FlightAware ADS-B (KLSV)
05:12PM 38.9718 -121.2698 354° North 384 442 19,300 2,400 Climbing FlightAware ADS-B (KLSV)
05:12PM 39.0391 -121.2789 354° North 389 448 20,900 2,123 Climbing FlightAware ADS-B (KLSV)
05:14PM 39.2033 -121.3022 354° North 398 458 23,900 1,934 Climbing Oakland Center
05:15PM 39.3192 -121.3181 354° North 413 475 25,800 1,918 Climbing Oakland Center
05:16PM 39.4383 -121.3339 354° North 425 489 27,800 1,707 Climbing Oakland Center
05:17PM 39.5558 -121.3578 351° North 432 497 29,300 1,073 Climbing Oakland Center
05:18PM 39.6814 -121.3694 356° North 450 518 30,000 341 Climbing Oakland Center
05:19PM 39.8053 -121.3858 354° North 449 517 30,000  Level Oakland Center
05:20PM 39.9517 -121.4061 354° North 446 513 30,000  Level Oakland Center
05:21PM 40.0736 -121.4247 353° North 445 512 30,000  Level Oakland Center
05:22PM 40.1981 -121.4406 354° North 450 518 30,000  Level Oakland Center
05:23PM 40.3194 -121.4583 354° North 444 511 30,000  Level Oakland Center
05:24PM 40.4428 -121.4767 354° North 446 513 30,000  Level Oakland Center
05:25PM 40.5686 -121.4939 354° North 444 511 30,000  Level Oakland Center
05:26PM 40.7128 -121.5144 354° North 448 516 30,000  Level Oakland Center
05:27PM 40.8347 -121.5342 353° North 445 512 30,000  Level Oakland Center
05:28PM 40.9569 -121.5508 354° North 444 511 30,000  Level Oakland Center
05:29PM 41.0803 -121.5692 354° North 447 514 30,000  Level Oakland Center
05:30PM 41.1378 -121.5789 353° North 447 514 30,000  Level Seattle Center
05:31PM 41.2847 -121.5989 354° North 444 511 30,000  Level Seattle Center
05:32PM 41.4061 -121.6183 353° North 441 507 30,000  Level Seattle Center
05:33PM 41.5294 -121.6350 354° North 446 513 30,000  Level Seattle Center
05:34PM 41.6536 -121.6542 353° North 451 519 30,000  Level Seattle Center
05:35PM 41.7753 -121.6717 354° North 446 513 30,000  Level Seattle Center
05:36PM 41.8981 -121.6897 354° North 449 517 30,000  Level Seattle Center
05:37PM 42.0197 -121.7078 354° North 447 514 30,000  Level Seattle Center
05:38PM 42.1394 -121.7267 353° North 442 509 30,000  Level Seattle Center
05:39PM 42.2828 -121.7569 351° North 442 509 30,000  Level Seattle Center
05:40PM 42.4017 -121.7839 350° North 438 504 30,000  Level Seattle Center
05:41PM 42.5225 -121.8125 350° North 440 506 30,000  Level Seattle Center
05:42PM 42.6408 -121.8400 350° North 438 504 30,000  Level Seattle Center
05:43PM 42.7617 -121.8672 351° North 441 507 30,000  Level Seattle Center
05:44PM 42.8833 -121.8956 350° North 443 510 30,000  Level Seattle Center
05:45PM 43.0050 -121.9231 351° North 443 510 30,000  Level Seattle Center
05:46PM 43.1261 -121.9506 351° North 443 510 30,000  Level Seattle Center
05:47PM 43.2514 -121.9803 350° North 455 524 30,000  Level Seattle Center
05:48PM 43.3853 -122.0108 351° North 459 528 30,000  Level Seattle Center
05:49PM 43.5094 -122.0392 351° North 454 522 30,000  Level Seattle Center
05:50PM 43.6339 -122.0692 350° North 453 521 30,000  Level Seattle Center
05:51PM 43.7583 -122.0997 350° North 454 522 30,000  Level Seattle Center
05:52PM 43.8839 -122.1286 351° North 460 529 30,000  Level Seattle Center
05:53PM 44.0333 -122.1647 350° North 456 525 30,000  Level Seattle Center
05:54PM 44.1575 -122.1942 350° North 456 525 30,000  Level Seattle Center
06:00PM 44.8640 -122.3690 350° North 452 520 30,000  Level FlightAware ADS-B
06:00PM 44.9256 -122.3840 350° North 452 520 30,000  Level FlightAware ADS-B
06:01PM 44.9908 -122.4010 350° North 450 518 30,000  Level FlightAware ADS-B
06:02PM 45.0614 -122.4180 350° North 448 516 30,000  Level FlightAware ADS-B
06:02PM 45.1511 -122.4410 350° North 448 516 30,000  Level FlightAware ADS-B
06:03PM 45.2152 -122.4570 350° North 450 518 30,000  Level FlightAware ADS-B
06:03PM 45.2766 -122.4720 350° North 449 517 30,000  Level FlightAware ADS-B
06:04PM 45.3388 -122.4880 350° North 449 517 30,000  Level FlightAware ADS-B
06:04PM 45.4057 -122.5050 350° North 448 516 30,000 -369 Level FlightAware ADS-B
06:05PM 45.4694 -122.5210 350° North 445 512 29,600 -1,048 Descending FlightAware ADS-B
06:05PM 45.5331 -122.5370 350° North 441 507 28,900 -1,385 Descending FlightAware ADS-B
06:06PM 45.5996 -122.5540 350° North 437 503 28,100 -1,500 Descending FlightAware ADS-B
06:06PM 45.6598 -122.5690 350° North 435 501 27,300 -1,482 Descending FlightAware ADS-B
06:07PM 45.7675 -122.5970 350° North 432 497 26,000 -1,310 Descending FlightAware ADS-B
06:08PM 45.8309 -122.6120 351° North 429 494 25,400 -1,161 Descending FlightAware ADS-B
06:08PM 45.8894 -122.6270 350° North 422 486 24,800 -1,125 Descending FlightAware ADS-B
06:09PM 45.9547 -122.6430 350° North 418 481 24,200 -1,000 Descending FlightAware ADS-B
06:09PM 46.0145 -122.6580 350° North 410 472 23,700 -900 Descending FlightAware ADS-B
06:10PM 46.0658 -122.6710 350° North 407 468 23,300 -1,000 Descending FlightAware ADS-B
06:10PM 46.0815 -122.6730 355° North 408 470 23,100 -1,235 Descending FlightAware ADS-B
06:11PM 46.1300 -122.6760 358° North 412 474 22,600 -1,100 Descending FlightAware ADS-B
06:11PM 46.1943 -122.6710 North 411 473 22,000 -1,031 Descending FlightAware ADS-B
06:12PM 46.2512 -122.6660 North 407 468 21,500 -1,000 Descending FlightAware ADS-B
06:12PM 46.3074 -122.6610 North 405 466 21,000 -1,000 Descending FlightAware ADS-B
06:13PM 46.3632 -122.6560 North 403 464 20,500 -1,000 Descending FlightAware ADS-B
06:13PM 46.4195 -122.6510 North 400 460 20,000 -1,082 Descending FlightAware ADS-B
06:14PM 46.4768 -122.6460 North 397 457 19,400 -1,065 Descending FlightAware ADS-B
06:14PM 46.5323 -122.6420 North 395 455 18,900 -984 Descending FlightAware ADS-B
06:15PM 46.5873 -122.6370 North 394 453 18,400 -1,000 Descending FlightAware ADS-B
06:15PM 46.6420 -122.6320 North 392 451 17,900 -984 Descending FlightAware ADS-B
06:16PM 46.6972 -122.6270 North 390 449 17,400 -1,082 Descending FlightAware ADS-B
06:16PM 46.7507 -122.6230 North 388 447 16,800 -1,545 Descending FlightAware ADS-B
06:17PM 46.8145 -122.6170 North 380 437 15,700 -1,933 Descending FlightAware ADS-B
06:18PM 46.9075 -122.6090 North 367 422 13,900 -2,044 Descending FlightAware ADS-B
06:18PM 46.9699 -122.6040 North 368 423 12,600 -1,791 Descending FlightAware ADS-B
06:19PM 47.0208 -122.5990 North 358 412 11,900 -700 Descending FlightAware ADS-B
06:19PM 47.0685 -122.5940 North 325 374 11,900  Level FlightAware ADS-B
06:20PM 47.1113 -122.5910 North 298 343 11,900 -590 Level FlightAware ADS-B
06:20PM 47.1526 -122.5870 North 293 337 11,300 -1,322 Descending FlightAware ADS-B
06:21PM 47.1914 -122.5840 North 294 338 10,600 -1,579 Descending FlightAware ADS-B
06:21PM 47.2046 -122.5830 North 294 338 10,300 -1,500 Descending FlightAware ADS-B
06:21PM 47.2128 -122.5810 North 301 346 10,200 -1,500 Descending FlightAware ADS-B
06:21PM 47.2207 -122.5770 19° North 308 354 10,000 -1,800 Descending FlightAware ADS-B
06:21PM 47.2262 -122.5740 20° North 315 362 9,900 -1,714 Descending FlightAware ADS-B
06:21PM 47.2303 -122.5700 34° Northeast 319 367 9,800 -1,714 Descending FlightAware ADS-B
06:21PM 47.2348 -122.5660 31° Northeast 323 372 9,700 -1,500 Descending FlightAware ADS-B
06:21PM 47.2393 -122.5610 37° Northeast 326 375 9,600 -1,579 Descending FlightAware ADS-B
06:22PM 47.2567 -122.5380 42° Northeast 330 380 9,200 -1,400 Descending FlightAware ADS-B
06:22PM 47.2741 -122.5160 41° Northeast 329 379 8,900 -1,200 Descending FlightAware ADS-B
06:22PM 47.2913 -122.4930 42° Northeast 325 374 8,600 -1,111 Descending FlightAware ADS-B
06:22PM 47.3042 -122.4760 42° Northeast 321 369 8,400 -1,000 Descending FlightAware ADS-B
06:22PM 47.3107 -122.4680 40° Northeast 317 365 8,300 -667 Descending FlightAware ADS-B
06:22PM 47.3146 -122.4640 35° Northeast 315 362 8,300 -857 Level FlightAware ADS-B
06:23PM 47.3198 -122.4590 33° Northeast 311 358 8,200 -857 Descending FlightAware ADS-B
06:23PM 47.3237 -122.4560 28° Northeast 307 353 8,200 -667 Level FlightAware ADS-B
06:23PM 47.3311 -122.4530 15° North 301 346 8,100 -1,200 Descending FlightAware ADS-B
06:23PM 47.3367 -122.4510 14° North 297 342 8,000 -600 Descending FlightAware ADS-B
06:23PM 47.3446 -122.4500 North 292 336 8,000 -333 Level FlightAware ADS-B
06:23PM 47.3605 -122.4490 North 293 337 7,900 -222 Descending FlightAware ADS-B
06:23PM 47.3813 -122.4480 North 296 341 7,900  Level FlightAware ADS-B
06:24PM 47.4050 -122.4470 North 295 339 7,900 -727 Level FlightAware ADS-B
06:24PM 47.4256 -122.4460 North 293 337 7,500 -1,548 Descending FlightAware ADS-B
06:24PM 47.4461 -122.4450 North 288 331 7,100 -2,160 Descending FlightAware ADS-B
06:24PM 47.4601 -122.4440 North 283 326 6,600 -3,120 Descending FlightAware ADS-B
06:24PM 47.4796 -122.4440 360° North 276 318 5,800 -3,290 Descending FlightAware ADS-B
06:25PM 47.4988 -122.4430 North 272 313 4,900 -3,484 Descending FlightAware ADS-B
06:25PM 47.5176 -122.4430 360° North 270 311 4,000 -3,429 Descending FlightAware ADS-B
06:25PM 47.5342 -122.4430 360° North 265 305 3,300 -2,824 Descending FlightAware ADS-B
06:25PM 47.5395 -122.4430 360° North 260 299 3,200 -2,400 Descending FlightAware ADS-B
06:25PM 47.5519 -122.4430 360° North 251 289 2,700 -2,571 Descending FlightAware ADS-B
06:26PM 47.5716 -122.4430 360° North 242 278 2,000 -2,455 Descending FlightAware ADS-B
06:26PM 47.5771 -122.4420 North 241 277 1,800 -1,091 Descending FlightAware ADS-B
06:26PM 47.5825 -122.4400 14° North 232 267 1,800  Level FlightAware ADS-B
06:26PM 47.5921 -122.4310 32° Northeast 229 264 1,800  Level FlightAware ADS-B
06:26PM 47.5949 -122.4270 44° Northeast 221 254 1,800 -375 Level FlightAware ADS-B
06:26PM 47.6025 -122.4130 51° Northeast 211 243 1,700 -375 Descending FlightAware ADS-B
06:26PM 47.6039 -122.4090 63° Northeast 209 241 1,700  Level FlightAware ADS-B
06:27PM 47.6058 -122.4010 71° East 205 236 1,700  Level FlightAware ADS-B
06:27PM 47.6068 -122.3890 83° East 194 223 1,700 -375 Level FlightAware ADS-B
06:27PM 47.6061 -122.3800 97° East 191 220 1,600 -429 Descending FlightAware ADS-B
06:27PM 47.6042 -122.3710 107° East 184 212 1,600 -333 Level FlightAware ADS-B
06:27PM 47.5992 -122.3600 124° Southeast 179 206 1,500 -800 Descending FlightAware ADS-B
06:27PM 47.5968 -122.3570 140° Southeast 167 192 1,400 -1,333 Descending FlightAware ADS-B
06:27PM 47.5936 -122.3550 157° South 160 184 1,300 -923 Descending FlightAware ADS-B
06:27PM 47.5888 -122.3510 151° Southeast 150 173 1,200 -759 Descending FlightAware ADS-B
06:29PM 47.5444 -122.3153 151° Southeast 145 167 200 -471 Descending Seattle Center
06:30PM 47.5133 -122.2883 150° Southeast 145 167 100 -98 Descending Seattle Center

Login

Don't have an account? Register now (free) for customized features, flight alerts, and more!